sensor_id;sensor_type;location;lat;lon;timestamp;P1;durP1;ratioP1;P2;durP2;ratioP2
51764;SDS011;37835;53.256;6.456;2023-12-20T00:00:34;18.48;;;2.55;;
51764;SDS011;37835;53.256;6.456;2023-12-20T00:03:02;21.70;;;2.47;;
51764;SDS011;37835;53.256;6.456;2023-12-20T00:05:28;13.02;;;1.98;;
51764;SDS011;37835;53.256;6.456;2023-12-20T00:07:54;22.10;;;2.67;;
51764;SDS011;37835;53.256;6.456;2023-12-20T00:10:19;21.73;;;2.72;;
51764;SDS011;37835;53.256;6.456;2023-12-20T00:12:45;17.70;;;2.35;;
51764;SDS011;37835;53.256;6.456;2023-12-20T00:15:10;16.58;;;2.53;;
51764;SDS011;37835;53.256;6.456;2023-12-20T00:17:36;21.27;;;2.92;;
51764;SDS011;37835;53.256;6.456;2023-12-20T00:20:02;21.65;;;2.75;;
51764;SDS011;37835;53.256;6.456;2023-12-20T00:22:28;21.33;;;3.03;;
51764;SDS011;37835;53.256;6.456;2023-12-20T00:24:53;12.27;;;1.90;;
51764;SDS011;37835;53.256;6.456;2023-12-20T00:27:19;17.15;;;2.40;;
51764;SDS011;37835;53.256;6.456;2023-12-20T00:29:44;15.00;;;2.42;;
51764;SDS011;37835;53.256;6.456;2023-12-20T00:32:13;21.45;;;2.35;;
51764;SDS011;37835;53.256;6.456;2023-12-20T00:34:38;15.13;;;2.28;;
51764;SDS011;37835;53.256;6.456;2023-12-20T00:37:04;21.23;;;2.33;;
51764;SDS011;37835;53.256;6.456;2023-12-20T00:39:30;19.95;;;2.53;;
51764;SDS011;37835;53.256;6.456;2023-12-20T00:41:58;22.17;;;2.40;;
51764;SDS011;37835;53.256;6.456;2023-12-20T00:44:23;24.85;;;2.85;;
51764;SDS011;37835;53.256;6.456;2023-12-20T00:46:49;18.48;;;2.80;;
51764;SDS011;37835;53.256;6.456;2023-12-20T00:49:14;24.70;;;3.33;;
51764;SDS011;37835;53.256;6.456;2023-12-20T00:51:40;16.38;;;2.75;;
51764;SDS011;37835;53.256;6.456;2023-12-20T00:54:06;18.70;;;2.95;;
51764;SDS011;37835;53.256;6.456;2023-12-20T00:56:31;16.23;;;2.60;;
51764;SDS011;37835;53.256;6.456;2023-12-20T00:58:57;14.80;;;2.42;;
51764;SDS011;37835;53.256;6.456;2023-12-20T01:01:22;15.38;;;2.47;;
51764;SDS011;37835;53.256;6.456;2023-12-20T01:03:48;22.38;;;3.17;;
51764;SDS011;37835;53.256;6.456;2023-12-20T01:06:16;23.65;;;2.42;;
51764;SDS011;37835;53.256;6.456;2023-12-20T01:08:42;11.07;;;2.63;;
51764;SDS011;37835;53.256;6.456;2023-12-20T01:11:07;17.70;;;2.33;;
51764;SDS011;37835;53.256;6.456;2023-12-20T01:13:33;14.68;;;2.05;;
51764;SDS011;37835;53.256;6.456;2023-12-20T01:15:59;16.52;;;2.15;;
51764;SDS011;37835;53.256;6.456;2023-12-20T01:18:24;15.30;;;2.17;;
51764;SDS011;37835;53.256;6.456;2023-12-20T01:20:50;15.15;;;2.15;;
51764;SDS011;37835;53.256;6.456;2023-12-20T01:23:16;15.48;;;2.42;;
51764;SDS011;37835;53.256;6.456;2023-12-20T01:25:41;8.80;;;2.13;;
51764;SDS011;37835;53.256;6.456;2023-12-20T01:28:08;19.38;;;2.45;;
51764;SDS011;37835;53.256;6.456;2023-12-20T01:30:34;16.23;;;2.50;;
51764;SDS011;37835;53.256;6.456;2023-12-20T01:33:00;21.65;;;2.55;;
51764;SDS011;37835;53.256;6.456;2023-12-20T01:35:26;21.95;;;2.85;;
51764;SDS011;37835;53.256;6.456;2023-12-20T01:37:52;20.35;;;3.35;;
51764;SDS011;37835;53.256;6.456;2023-12-20T01:40:21;17.60;;;2.35;;
51764;SDS011;37835;53.256;6.456;2023-12-20T01:42:47;15.82;;;2.65;;
51764;SDS011;37835;53.256;6.456;2023-12-20T01:45:22;22.42;;;3.15;;
51764;SDS011;37835;53.256;6.456;2023-12-20T01:47:48;19.45;;;2.95;;
51764;SDS011;37835;53.256;6.456;2023-12-20T01:50:14;23.38;;;3.90;;
51764;SDS011;37835;53.256;6.456;2023-12-20T01:52:41;27.65;;;3.65;;
51764;SDS011;37835;53.256;6.456;2023-12-20T01:55:08;22.85;;;3.60;;
51764;SDS011;37835;53.256;6.456;2023-12-20T01:57:39;17.42;;;2.42;;
51764;SDS011;37835;53.256;6.456;2023-12-20T02:00:06;22.15;;;2.83;;
51764;SDS011;37835;53.256;6.456;2023-12-20T02:02:34;12.60;;;1.88;;
51764;SDS011;37835;53.256;6.456;2023-12-20T02:05:04;15.85;;;2.33;;
51764;SDS011;37835;53.256;6.456;2023-12-20T02:07:30;18.92;;;2.58;;
51764;SDS011;37835;53.256;6.456;2023-12-20T02:09:56;19.55;;;3.08;;
51764;SDS011;37835;53.256;6.456;2023-12-20T02:12:22;16.90;;;2.47;;
51764;SDS011;37835;53.256;6.456;2023-12-20T02:14:48;16.25;;;2.55;;
51764;SDS011;37835;53.256;6.456;2023-12-20T02:17:15;22.58;;;3.83;;
51764;SDS011;37835;53.256;6.456;2023-12-20T02:19:41;24.88;;;2.80;;
51764;SDS011;37835;53.256;6.456;2023-12-20T02:22:13;26.85;;;3.53;;
51764;SDS011;37835;53.256;6.456;2023-12-20T02:24:38;31.15;;;4.00;;
51764;SDS011;37835;53.256;6.456;2023-12-20T02:27:08;16.48;;;2.67;;
51764;SDS011;37835;53.256;6.456;2023-12-20T02:29:34;20.30;;;2.90;;
51764;SDS011;37835;53.256;6.456;2023-12-20T02:32:00;17.30;;;2.40;;
51764;SDS011;37835;53.256;6.456;2023-12-20T02:34:26;27.80;;;3.38;;
51764;SDS011;37835;53.256;6.456;2023-12-20T02:36:52;26.38;;;4.35;;
51764;SDS011;37835;53.256;6.456;2023-12-20T02:39:19;27.45;;;3.92;;
51764;SDS011;37835;53.256;6.456;2023-12-20T02:41:46;22.92;;;2.92;;
51764;SDS011;37835;53.256;6.456;2023-12-20T02:44:11;28.98;;;4.90;;
51764;SDS011;37835;53.256;6.456;2023-12-20T02:46:37;29.27;;;3.65;;
51764;SDS011;37835;53.256;6.456;2023-12-20T02:49:03;25.10;;;3.97;;
51764;SDS011;37835;53.256;6.456;2023-12-20T02:51:28;25.60;;;4.15;;
51764;SDS011;37835;53.256;6.456;2023-12-20T02:53:54;29.98;;;4.22;;
51764;SDS011;37835;53.256;6.456;2023-12-20T02:56:20;28.98;;;3.35;;
51764;SDS011;37835;53.256;6.456;2023-12-20T02:58:45;33.25;;;5.00;;
51764;SDS011;37835;53.256;6.456;2023-12-20T03:01:11;27.42;;;3.47;;
51764;SDS011;37835;53.256;6.456;2023-12-20T03:03:36;36.92;;;4.28;;
51764;SDS011;37835;53.256;6.456;2023-12-20T03:06:02;32.67;;;4.60;;
51764;SDS011;37835;53.256;6.456;2023-12-20T03:08:28;32.42;;;4.50;;
51764;SDS011;37835;53.256;6.456;2023-12-20T03:10:53;29.50;;;5.28;;
51764;SDS011;37835;53.256;6.456;2023-12-20T03:13:19;31.02;;;4.88;;
51764;SDS011;37835;53.256;6.456;2023-12-20T03:15:45;26.17;;;3.95;;
51764;SDS011;37835;53.256;6.456;2023-12-20T03:18:11;30.23;;;4.65;;
51764;SDS011;37835;53.256;6.456;2023-12-20T03:20:36;40.42;;;6.38;;
51764;SDS011;37835;53.256;6.456;2023-12-20T03:23:02;33.55;;;5.13;;
51764;SDS011;37835;53.256;6.456;2023-12-20T03:25:28;34.50;;;4.97;;
51764;SDS011;37835;53.256;6.456;2023-12-20T03:27:54;21.35;;;3.80;;
51764;SDS011;37835;53.256;6.456;2023-12-20T03:30:20;34.35;;;5.00;;
51764;SDS011;37835;53.256;6.456;2023-12-20T03:32:45;30.45;;;4.22;;
51764;SDS011;37835;53.256;6.456;2023-12-20T03:35:11;27.15;;;3.70;;
51764;SDS011;37835;53.256;6.456;2023-12-20T03:37:37;29.42;;;4.05;;
51764;SDS011;37835;53.256;6.456;2023-12-20T03:40:02;31.90;;;4.32;;
51764;SDS011;37835;53.256;6.456;2023-12-20T03:42:28;24.83;;;4.60;;
51764;SDS011;37835;53.256;6.456;2023-12-20T03:44:54;24.48;;;4.47;;
51764;SDS011;37835;53.256;6.456;2023-12-20T03:47:20;30.77;;;4.60;;
51764;SDS011;37835;53.256;6.456;2023-12-20T03:49:45;33.55;;;5.10;;
51764;SDS011;37835;53.256;6.456;2023-12-20T03:52:11;29.73;;;4.47;;
51764;SDS011;37835;53.256;6.456;2023-12-20T03:54:37;38.63;;;4.25;;
51764;SDS011;37835;53.256;6.456;2023-12-20T03:57:03;32.63;;;4.35;;
51764;SDS011;37835;53.256;6.456;2023-12-20T03:59:29;34.13;;;4.53;;
51764;SDS011;37835;53.256;6.456;2023-12-20T04:01:59;33.72;;;4.30;;
51764;SDS011;37835;53.256;6.456;2023-12-20T04:04:25;33.28;;;5.28;;
51764;SDS011;37835;53.256;6.456;2023-12-20T04:06:50;33.60;;;4.97;;
51764;SDS011;37835;53.256;6.456;2023-12-20T04:09:16;29.27;;;4.15;;
51764;SDS011;37835;53.256;6.456;2023-12-20T04:11:42;28.83;;;4.32;;
51764;SDS011;37835;53.256;6.456;2023-12-20T04:14:07;29.52;;;5.28;;
51764;SDS011;37835;53.256;6.456;2023-12-20T04:16:33;29.10;;;4.53;;
51764;SDS011;37835;53.256;6.456;2023-12-20T04:18:58;41.15;;;5.45;;
51764;SDS011;37835;53.256;6.456;2023-12-20T04:21:24;32.20;;;4.45;;
51764;SDS011;37835;53.256;6.456;2023-12-20T04:23:50;30.70;;;5.18;;
51764;SDS011;37835;53.256;6.456;2023-12-20T04:26:15;36.33;;;4.63;;
51764;SDS011;37835;53.256;6.456;2023-12-20T04:28:41;31.63;;;4.63;;
51764;SDS011;37835;53.256;6.456;2023-12-20T04:31:07;30.52;;;4.30;;
51764;SDS011;37835;53.256;6.456;2023-12-20T04:33:32;42.75;;;4.88;;
51764;SDS011;37835;53.256;6.456;2023-12-20T04:35:58;32.53;;;4.28;;
51764;SDS011;37835;53.256;6.456;2023-12-20T04:38:25;30.48;;;4.35;;
51764;SDS011;37835;53.256;6.456;2023-12-20T04:40:50;37.33;;;4.75;;
51764;SDS011;37835;53.256;6.456;2023-12-20T04:43:17;33.45;;;5.72;;
51764;SDS011;37835;53.256;6.456;2023-12-20T04:45:42;30.85;;;3.58;;
51764;SDS011;37835;53.256;6.456;2023-12-20T04:48:08;28.42;;;4.03;;
51764;SDS011;37835;53.256;6.456;2023-12-20T04:50:34;29.52;;;5.07;;
51764;SDS011;37835;53.256;6.456;2023-12-20T04:53:00;40.53;;;4.75;;
51764;SDS011;37835;53.256;6.456;2023-12-20T04:55:25;29.73;;;5.18;;
51764;SDS011;37835;53.256;6.456;2023-12-20T04:57:51;28.92;;;4.57;;
51764;SDS011;37835;53.256;6.456;2023-12-20T05:00:17;30.35;;;4.30;;
51764;SDS011;37835;53.256;6.456;2023-12-20T05:02:42;27.52;;;4.32;;
51764;SDS011;37835;53.256;6.456;2023-12-20T05:05:08;39.33;;;5.03;;
51764;SDS011;37835;53.256;6.456;2023-12-20T05:07:34;25.17;;;4.35;;
51764;SDS011;37835;53.256;6.456;2023-12-20T05:10:00;31.98;;;4.55;;
51764;SDS011;37835;53.256;6.456;2023-12-20T05:12:25;45.63;;;6.00;;
51764;SDS011;37835;53.256;6.456;2023-12-20T05:14:54;34.72;;;4.57;;
51764;SDS011;37835;53.256;6.456;2023-12-20T05:17:20;34.90;;;5.72;;
51764;SDS011;37835;53.256;6.456;2023-12-20T05:19:45;39.90;;;5.50;;
51764;SDS011;37835;53.256;6.456;2023-12-20T05:22:11;27.08;;;4.32;;
51764;SDS011;37835;53.256;6.456;2023-12-20T05:24:37;33.55;;;5.55;;
51764;SDS011;37835;53.256;6.456;2023-12-20T05:27:02;38.95;;;5.28;;
51764;SDS011;37835;53.256;6.456;2023-12-20T05:29:28;28.83;;;4.68;;
51764;SDS011;37835;53.256;6.456;2023-12-20T05:31:54;32.75;;;4.70;;
51764;SDS011;37835;53.256;6.456;2023-12-20T05:34:19;35.45;;;4.60;;
51764;SDS011;37835;53.256;6.456;2023-12-20T05:36:45;28.88;;;4.30;;
51764;SDS011;37835;53.256;6.456;2023-12-20T05:39:11;36.70;;;5.78;;
51764;SDS011;37835;53.256;6.456;2023-12-20T05:41:37;53.55;;;5.38;;
51764;SDS011;37835;53.256;6.456;2023-12-20T05:44:02;30.92;;;5.47;;
51764;SDS011;37835;53.256;6.456;2023-12-20T05:46:28;28.75;;;4.60;;
51764;SDS011;37835;53.256;6.456;2023-12-20T05:48:54;39.13;;;5.15;;
51764;SDS011;37835;53.256;6.456;2023-12-20T05:51:19;31.90;;;4.57;;
51764;SDS011;37835;53.256;6.456;2023-12-20T05:53:45;28.90;;;4.15;;
51764;SDS011;37835;53.256;6.456;2023-12-20T05:56:10;33.10;;;5.20;;
51764;SDS011;37835;53.256;6.456;2023-12-20T05:58:37;37.92;;;4.82;;
51764;SDS011;37835;53.256;6.456;2023-12-20T06:01:04;37.83;;;5.38;;
51764;SDS011;37835;53.256;6.456;2023-12-20T06:03:30;29.42;;;5.03;;
51764;SDS011;37835;53.256;6.456;2023-12-20T06:05:55;37.47;;;5.45;;
51764;SDS011;37835;53.256;6.456;2023-12-20T06:08:21;30.88;;;4.43;;
51764;SDS011;37835;53.256;6.456;2023-12-20T06:10:47;33.00;;;6.38;;
51764;SDS011;37835;53.256;6.456;2023-12-20T06:13:13;37.17;;;6.13;;
51764;SDS011;37835;53.256;6.456;2023-12-20T06:15:39;33.83;;;6.40;;
51764;SDS011;37835;53.256;6.456;2023-12-20T06:18:05;40.22;;;5.30;;
51764;SDS011;37835;53.256;6.456;2023-12-20T06:20:31;29.48;;;5.10;;
51764;SDS011;37835;53.256;6.456;2023-12-20T06:22:58;32.75;;;4.90;;
51764;SDS011;37835;53.256;6.456;2023-12-20T06:25:23;29.38;;;5.10;;
51764;SDS011;37835;53.256;6.456;2023-12-20T06:27:49;37.03;;;6.30;;
51764;SDS011;37835;53.256;6.456;2023-12-20T06:30:15;36.17;;;5.60;;
51764;SDS011;37835;53.256;6.456;2023-12-20T06:32:41;31.23;;;5.57;;
51764;SDS011;37835;53.256;6.456;2023-12-20T06:35:08;31.55;;;4.82;;
51764;SDS011;37835;53.256;6.456;2023-12-20T06:37:34;27.20;;;4.97;;
51764;SDS011;37835;53.256;6.456;2023-12-20T06:40:00;33.80;;;4.90;;
51764;SDS011;37835;53.256;6.456;2023-12-20T06:42:26;35.85;;;4.70;;
51764;SDS011;37835;53.256;6.456;2023-12-20T06:44:52;34.00;;;5.32;;
51764;SDS011;37835;53.256;6.456;2023-12-20T06:47:17;40.88;;;5.78;;
51764;SDS011;37835;53.256;6.456;2023-12-20T06:49:43;33.75;;;5.28;;
51764;SDS011;37835;53.256;6.456;2023-12-20T06:52:09;42.30;;;6.45;;
51764;SDS011;37835;53.256;6.456;2023-12-20T06:54:35;38.92;;;5.57;;
51764;SDS011;37835;53.256;6.456;2023-12-20T06:57:01;27.92;;;5.03;;
51764;SDS011;37835;53.256;6.456;2023-12-20T06:59:28;28.92;;;4.28;;
51764;SDS011;37835;53.256;6.456;2023-12-20T07:01:54;38.03;;;5.93;;
51764;SDS011;37835;53.256;6.456;2023-12-20T07:04:20;34.90;;;6.65;;
51764;SDS011;37835;53.256;6.456;2023-12-20T07:06:49;32.17;;;5.28;;
51764;SDS011;37835;53.256;6.456;2023-12-20T07:09:17;44.00;;;5.80;;
51764;SDS011;37835;53.256;6.456;2023-12-20T07:11:42;39.97;;;6.15;;
51764;SDS011;37835;53.256;6.456;2023-12-20T07:14:08;36.55;;;5.97;;
51764;SDS011;37835;53.256;6.456;2023-12-20T07:16:34;35.40;;;5.65;;
51764;SDS011;37835;53.256;6.456;2023-12-20T07:19:00;34.42;;;5.18;;
51764;SDS011;37835;53.256;6.456;2023-12-20T07:21:25;37.38;;;5.82;;
51764;SDS011;37835;53.256;6.456;2023-12-20T07:23:51;30.05;;;5.10;;
51764;SDS011;37835;53.256;6.456;2023-12-20T07:26:18;43.40;;;6.25;;
51764;SDS011;37835;53.256;6.456;2023-12-20T07:28:44;24.45;;;5.20;;
51764;SDS011;37835;53.256;6.456;2023-12-20T07:31:10;31.20;;;4.85;;
51764;SDS011;37835;53.256;6.456;2023-12-20T07:33:35;38.72;;;4.70;;
51764;SDS011;37835;53.256;6.456;2023-12-20T07:36:01;30.20;;;4.60;;
51764;SDS011;37835;53.256;6.456;2023-12-20T07:38:27;28.63;;;4.97;;
51764;SDS011;37835;53.256;6.456;2023-12-20T07:40:52;26.45;;;4.93;;
51764;SDS011;37835;53.256;6.456;2023-12-20T07:43:18;31.75;;;5.03;;
51764;SDS011;37835;53.256;6.456;2023-12-20T07:45:44;35.70;;;5.13;;
51764;SDS011;37835;53.256;6.456;2023-12-20T07:48:09;35.92;;;5.75;;
51764;SDS011;37835;53.256;6.456;2023-12-20T07:50:35;32.28;;;5.22;;
51764;SDS011;37835;53.256;6.456;2023-12-20T07:53:01;33.00;;;5.03;;
51764;SDS011;37835;53.256;6.456;2023-12-20T07:55:28;32.70;;;5.20;;
51764;SDS011;37835;53.256;6.456;2023-12-20T07:57:55;40.53;;;6.07;;
51764;SDS011;37835;53.256;6.456;2023-12-20T08:00:21;33.45;;;5.28;;
51764;SDS011;37835;53.256;6.456;2023-12-20T08:02:46;34.40;;;5.43;;
51764;SDS011;37835;53.256;6.456;2023-12-20T08:05:12;43.17;;;5.43;;
51764;SDS011;37835;53.256;6.456;2023-12-20T08:07:38;41.80;;;5.60;;
51764;SDS011;37835;53.256;6.456;2023-12-20T08:10:04;28.58;;;5.97;;
51764;SDS011;37835;53.256;6.456;2023-12-20T08:12:30;42.47;;;5.75;;
51764;SDS011;37835;53.256;6.456;2023-12-20T08:14:56;38.33;;;5.43;;
51764;SDS011;37835;53.256;6.456;2023-12-20T08:17:22;31.83;;;5.00;;
51764;SDS011;37835;53.256;6.456;2023-12-20T08:19:48;25.45;;;4.50;;
51764;SDS011;37835;53.256;6.456;2023-12-20T08:22:14;38.83;;;5.25;;
51764;SDS011;37835;53.256;6.456;2023-12-20T08:24:40;30.15;;;4.97;;
51764;SDS011;37835;53.256;6.456;2023-12-20T08:27:05;34.47;;;5.32;;
51764;SDS011;37835;53.256;6.456;2023-12-20T08:29:31;34.70;;;4.38;;
51764;SDS011;37835;53.256;6.456;2023-12-20T08:31:57;18.08;;;2.97;;
51764;SDS011;37835;53.256;6.456;2023-12-20T08:34:23;6.40;;;1.08;;
51764;SDS011;37835;53.256;6.456;2023-12-20T08:36:49;8.68;;;1.50;;
51764;SDS011;37835;53.256;6.456;2023-12-20T08:39:16;12.15;;;1.40;;
51764;SDS011;37835;53.256;6.456;2023-12-20T08:41:42;12.43;;;1.45;;
51764;SDS011;37835;53.256;6.456;2023-12-20T08:44:08;10.45;;;1.10;;
51764;SDS011;37835;53.256;6.456;2023-12-20T08:46:34;11.93;;;1.60;;
51764;SDS011;37835;53.256;6.456;2023-12-20T08:49:00;6.22;;;0.93;;
51764;SDS011;37835;53.256;6.456;2023-12-20T08:51:26;9.38;;;1.10;;
51764;SDS011;37835;53.256;6.456;2023-12-20T08:53:52;7.63;;;1.05;;
51764;SDS011;37835;53.256;6.456;2023-12-20T08:56:18;19.80;;;2.15;;
51764;SDS011;37835;53.256;6.456;2023-12-20T08:58:45;12.43;;;1.85;;
51764;SDS011;37835;53.256;6.456;2023-12-20T09:01:11;20.50;;;2.72;;
51764;SDS011;37835;53.256;6.456;2023-12-20T09:03:38;28.15;;;2.95;;
51764;SDS011;37835;53.256;6.456;2023-12-20T09:06:05;24.08;;;2.70;;
51764;SDS011;37835;53.256;6.456;2023-12-20T09:08:31;27.38;;;2.95;;
51764;SDS011;37835;53.256;6.456;2023-12-20T09:10:56;22.70;;;2.80;;
51764;SDS011;37835;53.256;6.456;2023-12-20T09:13:22;18.58;;;2.10;;
51764;SDS011;37835;53.256;6.456;2023-12-20T09:15:53;13.25;;;1.83;;
51764;SDS011;37835;53.256;6.456;2023-12-20T09:18:22;9.48;;;1.70;;
51764;SDS011;37835;53.256;6.456;2023-12-20T09:20:48;10.07;;;1.42;;
51764;SDS011;37835;53.256;6.456;2023-12-20T09:23:13;17.17;;;1.48;;
51764;SDS011;37835;53.256;6.456;2023-12-20T09:25:39;8.68;;;1.25;;
51764;SDS011;37835;53.256;6.456;2023-12-20T09:28:05;16.83;;;1.50;;
51764;SDS011;37835;53.256;6.456;2023-12-20T09:30:30;9.95;;;0.73;;
51764;SDS011;37835;53.256;6.456;2023-12-20T09:32:56;7.38;;;1.10;;
51764;SDS011;37835;53.256;6.456;2023-12-20T09:35:22;7.53;;;0.98;;
51764;SDS011;37835;53.256;6.456;2023-12-20T09:37:49;8.80;;;1.10;;
51764;SDS011;37835;53.256;6.456;2023-12-20T09:40:15;12.77;;;1.27;;
51764;SDS011;37835;53.256;6.456;2023-12-20T09:42:53;10.82;;;1.48;;
51764;SDS011;37835;53.256;6.456;2023-12-20T09:45:21;12.38;;;2.13;;
51764;SDS011;37835;53.256;6.456;2023-12-20T09:47:48;8.55;;;1.42;;
51764;SDS011;37835;53.256;6.456;2023-12-20T09:50:18;10.63;;;1.10;;
51764;SDS011;37835;53.256;6.456;2023-12-20T09:52:46;11.93;;;1.27;;
51764;SDS011;37835;53.256;6.456;2023-12-20T09:55:16;15.30;;;2.28;;
51764;SDS011;37835;53.256;6.456;2023-12-20T09:57:44;18.05;;;1.70;;
51764;SDS011;37835;53.256;6.456;2023-12-20T10:00:10;15.15;;;2.35;;
51764;SDS011;37835;53.256;6.456;2023-12-20T10:02:38;12.88;;;1.80;;
51764;SDS011;37835;53.256;6.456;2023-12-20T10:05:06;13.20;;;2.20;;
51764;SDS011;37835;53.256;6.456;2023-12-20T10:07:37;13.52;;;1.73;;
51764;SDS011;37835;53.256;6.456;2023-12-20T10:10:02;14.40;;;1.92;;
51764;SDS011;37835;53.256;6.456;2023-12-20T10:12:29;18.27;;;2.00;;
51764;SDS011;37835;53.256;6.456;2023-12-20T10:14:55;13.05;;;1.98;;
51764;SDS011;37835;53.256;6.456;2023-12-20T10:17:22;15.52;;;2.08;;
51764;SDS011;37835;53.256;6.456;2023-12-20T10:19:49;14.85;;;1.73;;
51764;SDS011;37835;53.256;6.456;2023-12-20T10:22:14;20.65;;;2.00;;
51764;SDS011;37835;53.256;6.456;2023-12-20T10:24:40;13.32;;;2.22;;
51764;SDS011;37835;53.256;6.456;2023-12-20T10:27:07;15.48;;;2.25;;
51764;SDS011;37835;53.256;6.456;2023-12-20T10:29:33;19.65;;;2.60;;
51764;SDS011;37835;53.256;6.456;2023-12-20T10:32:22;16.58;;;3.22;;
51764;SDS011;37835;53.256;6.456;2023-12-20T10:34:49;21.00;;;2.10;;
51764;SDS011;37835;53.256;6.456;2023-12-20T10:37:16;12.32;;;2.38;;
51764;SDS011;37835;53.256;6.456;2023-12-20T10:39:42;14.57;;;2.17;;
51764;SDS011;37835;53.256;6.456;2023-12-20T10:42:11;19.15;;;2.47;;
51764;SDS011;37835;53.256;6.456;2023-12-20T10:44:38;15.55;;;2.47;;
51764;SDS011;37835;53.256;6.456;2023-12-20T10:47:04;23.55;;;3.10;;
51764;SDS011;37835;53.256;6.456;2023-12-20T10:49:31;17.23;;;2.80;;
51764;SDS011;37835;53.256;6.456;2023-12-20T10:52:02;23.27;;;2.88;;
51764;SDS011;37835;53.256;6.456;2023-12-20T10:54:30;19.30;;;2.88;;
51764;SDS011;37835;53.256;6.456;2023-12-20T10:56:57;19.70;;;2.92;;
51764;SDS011;37835;53.256;6.456;2023-12-20T10:59:24;24.92;;;2.92;;
51764;SDS011;37835;53.256;6.456;2023-12-20T11:01:50;17.17;;;3.13;;
51764;SDS011;37835;53.256;6.456;2023-12-20T11:04:25;21.75;;;2.67;;
51764;SDS011;37835;53.256;6.456;2023-12-20T11:07:05;21.45;;;2.92;;
51764;SDS011;37835;53.256;6.456;2023-12-20T11:09:41;18.98;;;2.75;;
51764;SDS011;37835;53.256;6.456;2023-12-20T11:14:47;16.80;;;2.85;;
51764;SDS011;37835;53.256;6.456;2023-12-20T11:17:17;34.90;;;4.75;;
51764;SDS011;37835;53.256;6.456;2023-12-20T11:20:04;25.70;;;3.47;;
51764;SDS011;37835;53.256;6.456;2023-12-20T11:22:30;22.50;;;2.58;;
51764;SDS011;37835;53.256;6.456;2023-12-20T11:25:09;25.17;;;4.40;;
51764;SDS011;37835;53.256;6.456;2023-12-20T11:27:36;31.65;;;3.83;;
51764;SDS011;37835;53.256;6.456;2023-12-20T11:30:05;20.05;;;3.55;;
51764;SDS011;37835;53.256;6.456;2023-12-20T11:32:33;29.08;;;3.35;;
51764;SDS011;37835;53.256;6.456;2023-12-20T11:35:01;24.80;;;2.90;;
51764;SDS011;37835;53.256;6.456;2023-12-20T11:37:37;22.23;;;2.90;;
51764;SDS011;37835;53.256;6.456;2023-12-20T11:40:08;32.17;;;3.80;;
51764;SDS011;37835;53.256;6.456;2023-12-20T11:42:37;24.65;;;3.58;;
51764;SDS011;37835;53.256;6.456;2023-12-20T11:45:04;23.52;;;3.63;;
51764;SDS011;37835;53.256;6.456;2023-12-20T11:47:33;32.92;;;4.63;;
51764;SDS011;37835;53.256;6.456;2023-12-20T11:50:00;25.52;;;2.88;;
51764;SDS011;37835;53.256;6.456;2023-12-20T11:52:28;21.45;;;2.85;;
51764;SDS011;37835;53.256;6.456;2023-12-20T11:54:54;23.15;;;3.45;;
51764;SDS011;37835;53.256;6.456;2023-12-20T11:57:20;20.20;;;2.80;;
51764;SDS011;37835;53.256;6.456;2023-12-20T11:59:46;17.10;;;3.20;;
51764;SDS011;37835;53.256;6.456;2023-12-20T12:02:14;19.58;;;3.03;;
51764;SDS011;37835;53.256;6.456;2023-12-20T12:04:46;24.05;;;3.47;;
51764;SDS011;37835;53.256;6.456;2023-12-20T12:07:14;31.55;;;3.40;;
51764;SDS011;37835;53.256;6.456;2023-12-20T12:09:40;22.13;;;3.28;;
51764;SDS011;37835;53.256;6.456;2023-12-20T12:12:06;18.33;;;2.88;;
51764;SDS011;37835;53.256;6.456;2023-12-20T12:14:32;24.88;;;3.25;;
51764;SDS011;37835;53.256;6.456;2023-12-20T12:16:58;21.65;;;3.53;;
51764;SDS011;37835;53.256;6.456;2023-12-20T12:19:25;22.23;;;2.83;;
51764;SDS011;37835;53.256;6.456;2023-12-20T12:21:52;20.85;;;2.53;;
51764;SDS011;37835;53.256;6.456;2023-12-20T12:24:35;16.20;;;2.30;;
51764;SDS011;37835;53.256;6.456;2023-12-20T12:27:08;19.92;;;2.70;;
51764;SDS011;37835;53.256;6.456;2023-12-20T12:29:34;25.20;;;2.45;;
51764;SDS011;37835;53.256;6.456;2023-12-20T12:32:01;25.77;;;3.22;;
51764;SDS011;37835;53.256;6.456;2023-12-20T12:34:30;16.40;;;2.80;;
51764;SDS011;37835;53.256;6.456;2023-12-20T12:36:56;15.10;;;2.40;;
51764;SDS011;37835;53.256;6.456;2023-12-20T12:39:23;13.52;;;2.15;;
51764;SDS011;37835;53.256;6.456;2023-12-20T12:41:58;20.60;;;2.50;;
51764;SDS011;37835;53.256;6.456;2023-12-20T12:44:25;16.30;;;2.17;;
51764;SDS011;37835;53.256;6.456;2023-12-20T12:46:50;15.57;;;2.60;;
51764;SDS011;37835;53.256;6.456;2023-12-20T12:49:18;22.17;;;2.95;;
51764;SDS011;37835;53.256;6.456;2023-12-20T12:51:44;18.58;;;2.53;;
51764;SDS011;37835;53.256;6.456;2023-12-20T12:54:10;18.05;;;3.00;;
51764;SDS011;37835;53.256;6.456;2023-12-20T12:56:38;23.75;;;3.05;;
51764;SDS011;37835;53.256;6.456;2023-12-20T12:59:04;18.30;;;2.45;;
51764;SDS011;37835;53.256;6.456;2023-12-20T13:01:31;21.13;;;3.25;;
51764;SDS011;37835;53.256;6.456;2023-12-20T13:03:59;14.15;;;2.05;;
51764;SDS011;37835;53.256;6.456;2023-12-20T13:06:28;13.82;;;2.30;;
51764;SDS011;37835;53.256;6.456;2023-12-20T13:08:54;15.50;;;2.35;;
51764;SDS011;37835;53.256;6.456;2023-12-20T13:11:20;19.65;;;2.90;;
51764;SDS011;37835;53.256;6.456;2023-12-20T13:13:46;15.15;;;2.78;;
51764;SDS011;37835;53.256;6.456;2023-12-20T13:16:12;22.40;;;3.10;;
51764;SDS011;37835;53.256;6.456;2023-12-20T13:18:38;16.45;;;2.33;;
51764;SDS011;37835;53.256;6.456;2023-12-20T13:21:07;13.98;;;2.65;;
51764;SDS011;37835;53.256;6.456;2023-12-20T13:23:34;20.85;;;2.65;;
51764;SDS011;37835;53.256;6.456;2023-12-20T13:25:59;14.27;;;2.20;;
51764;SDS011;37835;53.256;6.456;2023-12-20T13:28:25;20.08;;;2.25;;
51764;SDS011;37835;53.256;6.456;2023-12-20T13:30:50;15.90;;;2.58;;
51764;SDS011;37835;53.256;6.456;2023-12-20T13:33:16;17.95;;;2.25;;
51764;SDS011;37835;53.256;6.456;2023-12-20T13:35:42;11.70;;;2.13;;
51764;SDS011;37835;53.256;6.456;2023-12-20T13:38:08;16.70;;;2.55;;
51764;SDS011;37835;53.256;6.456;2023-12-20T13:40:33;13.90;;;1.80;;
51764;SDS011;37835;53.256;6.456;2023-12-20T13:42:59;18.63;;;2.17;;
51764;SDS011;37835;53.256;6.456;2023-12-20T13:45:24;16.00;;;2.65;;
51764;SDS011;37835;53.256;6.456;2023-12-20T13:47:50;15.55;;;2.83;;
51764;SDS011;37835;53.256;6.456;2023-12-20T13:50:16;13.98;;;2.00;;
51764;SDS011;37835;53.256;6.456;2023-12-20T13:52:42;15.45;;;1.63;;
51764;SDS011;37835;53.256;6.456;2023-12-20T13:55:07;12.90;;;1.70;;
51764;SDS011;37835;53.256;6.456;2023-12-20T13:57:34;12.52;;;1.70;;
51764;SDS011;37835;53.256;6.456;2023-12-20T14:00:02;13.27;;;2.10;;
51764;SDS011;37835;53.256;6.456;2023-12-20T14:02:30;14.70;;;2.33;;
51764;SDS011;37835;53.256;6.456;2023-12-20T14:04:55;13.00;;;1.60;;
51764;SDS011;37835;53.256;6.456;2023-12-20T14:07:21;7.63;;;1.30;;
51764;SDS011;37835;53.256;6.456;2023-12-20T14:09:46;8.93;;;1.25;;
51764;SDS011;37835;53.256;6.456;2023-12-20T14:12:13;7.88;;;1.33;;
51764;SDS011;37835;53.256;6.456;2023-12-20T14:14:39;8.35;;;1.58;;
51764;SDS011;37835;53.256;6.456;2023-12-20T14:17:04;12.55;;;1.60;;
51764;SDS011;37835;53.256;6.456;2023-12-20T14:19:34;11.65;;;1.42;;
51764;SDS011;37835;53.256;6.456;2023-12-20T14:22:00;8.18;;;1.65;;
51764;SDS011;37835;53.256;6.456;2023-12-20T14:24:26;7.38;;;1.30;;
51764;SDS011;37835;53.256;6.456;2023-12-20T14:26:52;6.55;;;1.17;;
51764;SDS011;37835;53.256;6.456;2023-12-20T14:29:18;7.90;;;1.23;;
51764;SDS011;37835;53.256;6.456;2023-12-20T14:31:44;8.80;;;1.20;;
51764;SDS011;37835;53.256;6.456;2023-12-20T14:34:10;7.10;;;1.40;;